Chon Buri, Thailand
Current Conditions -  °F | °C
As of 3:30 PM on Sunday 26 Oct 2014 (Local Time) from VTBS Reporting Station
Thunderstorm Thunderstorm  
Wind Chill: 81°   Ceiling: 12000
Heat Index: 85°   Visibility: 4mi
Dew Point: 72°   Wind: 16mph
Humidity: 74%   Direction: 130°SE
Pressure: 29.85"   Gusts: NA
Location:  13.4°N, 101°E
Report Text: VTBS 260830Z 13014KT 100V160 7000 -TSRA FEW018CB SCT030 BKN12027/22 Q1011 TEMPO 5000 TSRA
Loading
Personal Weather Stations






























Interactive Weather Map
Tropical Storm Tracking
New forecast layout! Learn more

10-Day Weather Forecast

Advertisements
Track Severe Weather on mobile